Conway, MA (01341)

10:11 AM EDT on July 26, 2016 (GMT -0400)
Whately Road | | Change Station
Active Advisory: Special Statement Active Notice: Record Report

Elev 830 ft 42.48 °N, 72.69 °W | Updated 5 minutes ago

Partly Cloudy
Partly Cloudy
79.5 °F
Feels Like 82 °F
N
0.0
Wind Variable Wind from WNW
Gusts 5.0 mph

Today
High -- | Low -- °F
--% Chance of Precip.
Yesterday
High -- | Low -- °F
Precip. -- in
Pressure 29.84 in
Visibility 10.0 miles
Clouds Few 4500 ft
Heat Index 82 °F
Dew Point 67 °F
Humidity 65%
Rainfall in
Snow Depth Not available.
5:37 AM 8:16 PM
Waning Gibbous, 54% visible
METAR KORE 261352Z AUTO 32012G18KT 10SM FEW045 28/16 A2985 RMK AO2 SLP103 T02830161
Pressure 29.84 in
Visibility 10.0 miles
Clouds Few 4500 ft
Heat Index 82 °F
Dew Point 67 °F
Humidity 65%
Rainfall in
Snow Depth Not available.
5:37 AM 8:16 PM
Waning Gibbous, 54% visible
METAR KORE 261352Z AUTO 32012G18KT 10SM FEW045 28/16 A2985 RMK AO2 SLP103 T02830161

10-Day Weather Forecast

Almanac

Astronomy

Jul. 26, 2016 Rise Set
Actual Time
Civil Twilight
Nautical Twilight
Astronomical Twilight
Moon
Length of Visible Light
Length of Day
Tomorrow will be .
, % of the Moon is Illuminated

Today's Extremes

State Highs State Lows

Community

WunderPhotos

Upload Photos

1,927,590 photos uploaded!

WunderBlog® & News

Nearby

Air Quality

  Air Quality AQ Index Pollutant
Not available.

Snow Depth

Station Depth Elevation

Earthquake Activity

City Distance Mag. Time & Date
Minimum magnitude displayed is 2.5.

Coastal Water Temperatures

Place Temperature

Stations

Nearby Weather Stations

Station Location Temp. Windchill Dew Point Humidity Wind Precip. Elev Updated Type
                   

Watches & Warnings

Special Statement
Issued: 7:27 AM EDT Jul. 26, 2016 – National Weather Service

... Elevated fire weather potential today and Wednesday...

Dry weather is expected today and Wednesday with minimum relative
humidity values near 30 percent. In addition... west winds will
gust around 20 mph around midday and the afternoon. These factors
combined with a lack of recent widespread rainfall will create an
elevated fire weather potential in interior sections of
Massachusetts... Rhode Island and Connecticut.


Dunten

727 am EDT Tue Jul 26 2016

... Elevated fire weather potential today and Wednesday...

Dry weather is expected today and Wednesday with minimum relative
humidity values near 30 percent. In addition... west winds will
gust around 20 mph around midday and the afternoon. These factors
combined with a lack of recent widespread rainfall will create an
elevated fire weather potential in interior sections of
Massachusetts... Rhode Island and Connecticut.


Dunten